createdAt,value
2022-09-24T00:01:33.617Z,8.10
2022-09-24T00:04:21.148Z,8.70
2022-09-24T00:07:08.158Z,8.67
2022-09-24T00:09:55.145Z,9.17
2022-09-24T00:12:42.204Z,8.67
2022-09-24T00:15:29.426Z,8.03
2022-09-24T00:18:18.410Z,7.80
2022-09-24T00:21:15.863Z,7.70
2022-09-24T00:24:09.245Z,7.70
2022-09-24T00:26:56.254Z,6.80
2022-09-24T00:29:43.153Z,7.73
2022-09-24T00:32:30.200Z,6.83
2022-09-24T00:35:18.401Z,7.90
2022-09-24T00:38:06.525Z,7.43
2022-09-24T00:40:53.982Z,7.50
2022-09-24T00:43:41.467Z,7.97
2022-09-24T00:46:37.440Z,8.90
2022-09-24T00:49:24.867Z,8.00
2022-09-24T00:52:11.860Z,8.60
2022-09-24T00:54:59.026Z,8.83
2022-09-24T00:57:50.159Z,8.83
2022-09-24T01:00:39.405Z,9.00
2022-09-24T01:03:27.211Z,9.77
2022-09-24T01:06:14.243Z,9.03
2022-09-24T01:09:01.409Z,9.50
2022-09-24T01:12:06.771Z,9.57
2022-09-24T01:14:57.059Z,9.67
2022-09-24T01:17:52.369Z,10.17
2022-09-24T01:21:15.473Z,11.63
2022-09-24T01:24:25.158Z,10.90
2022-09-24T01:27:42.383Z,11.87
2022-09-24T01:30:33.137Z,12.20
2022-09-24T01:33:22.795Z,12.23
2022-09-24T01:36:11.042Z,13.63
2022-09-24T01:38:59.344Z,12.57
2022-09-24T01:41:47.219Z,11.87
2022-09-24T01:44:35.466Z,12.50
2022-09-24T01:47:39.654Z,12.27
2022-09-24T01:50:31.297Z,12.70
2022-09-24T01:53:23.035Z,13.27
2022-09-24T01:56:24.621Z,12.80
2022-09-24T01:59:19.461Z,13.60
2022-09-24T02:02:23.466Z,12.63
2022-09-24T02:05:14.971Z,13.80
2022-09-24T02:08:29.382Z,14.90
2022-09-24T02:11:22.614Z,16.30
2022-09-24T02:14:14.625Z,14.57
2022-09-24T02:17:03.989Z,15.20
2022-09-24T02:19:52.881Z,14.40
2022-09-24T02:22:41.354Z,15.73
2022-09-24T02:26:01.350Z,15.07
2022-09-24T02:28:48.571Z,15.67
2022-09-24T02:31:39.364Z,15.03
2022-09-24T02:34:34.562Z,15.53
2022-09-24T02:37:23.859Z,14.13
2022-09-24T02:40:13.548Z,15.17
2022-09-24T02:43:00.590Z,15.27
2022-09-24T02:45:47.474Z,15.03
2022-09-24T02:48:34.783Z,15.40
2022-09-24T02:51:22.053Z,15.93
2022-09-24T02:54:10.066Z,17.77
2022-09-24T02:56:57.126Z,15.90
2022-09-24T02:59:44.666Z,16.97
2022-09-24T03:02:31.747Z,15.80
2022-09-24T03:05:18.755Z,17.27
2022-09-24T03:08:07.674Z,17.80
2022-09-24T03:10:56.219Z,18.73
2022-09-24T03:13:43.458Z,19.67
2022-09-24T03:16:30.491Z,19.47
2022-09-24T03:19:17.531Z,19.50
2022-09-24T03:22:04.491Z,18.57
2022-09-24T03:24:51.433Z,17.73
2022-09-24T03:27:38.329Z,17.10
2022-09-24T03:30:43.780Z,19.60
2022-09-24T03:33:35.175Z,19.00
2022-09-24T03:36:24.620Z,17.80
2022-09-24T03:39:11.544Z,18.47
2022-09-24T03:41:58.525Z,18.80
2022-09-24T03:44:45.467Z,18.33
2022-09-24T03:47:33.290Z,18.20
2022-09-24T03:50:20.671Z,18.53
2022-09-24T03:53:07.688Z,19.27
2022-09-24T03:55:56.613Z,19.83
2022-09-24T03:58:48.312Z,17.83
2022-09-24T04:01:37.361Z,19.10
2022-09-24T04:04:24.401Z,18.70
2022-09-24T04:07:11.846Z,18.07
2022-09-24T04:09:58.886Z,18.27
2022-09-24T04:12:46.126Z,19.57
2022-09-24T04:15:33.329Z,18.90
2022-09-24T04:18:20.485Z,18.70
2022-09-24T04:21:09.195Z,20.43
2022-09-24T04:23:56.062Z,19.20
2022-09-24T04:26:43.009Z,20.87
2022-09-24T04:29:30.013Z,20.90
2022-09-24T04:32:17.147Z,18.83
2022-09-24T04:35:07.642Z,21.30
2022-09-24T04:37:55.141Z,21.37
2022-09-24T04:40:42.166Z,21.97
2022-09-24T04:43:29.139Z,20.50
2022-09-24T04:46:16.226Z,22.47
2022-09-24T04:49:03.258Z,20.70
2022-09-24T04:51:50.189Z,22.00
2022-09-24T04:54:37.108Z,21.80
2022-09-24T04:57:24.217Z,20.80
2022-09-24T05:00:15.487Z,23.40
2022-09-24T05:03:05.340Z,20.57
2022-09-24T05:05:52.353Z,23.70
2022-09-24T05:08:39.434Z,22.50
2022-09-24T05:11:26.334Z,22.20
2022-09-24T05:14:13.327Z,22.90
2022-09-24T05:17:00.398Z,22.90
2022-09-24T05:19:47.628Z,27.20
2022-09-24T05:22:36.590Z,23.90
2022-09-24T05:25:23.740Z,24.07
2022-09-24T05:28:10.680Z,22.63
2022-09-24T05:30:58.336Z,23.73
2022-09-24T05:33:46.300Z,24.83
2022-09-24T05:36:33.321Z,26.07
2022-09-24T05:39:20.259Z,25.13
2022-09-24T05:42:10.025Z,23.80
2022-09-24T05:44:56.963Z,24.40
2022-09-24T05:47:47.529Z,24.07
2022-09-24T05:50:35.344Z,25.47
2022-09-24T05:53:25.619Z,22.83
2022-09-24T05:56:12.562Z,18.73
2022-09-24T05:59:01.080Z,22.23
2022-09-24T06:01:49.314Z,20.97
2022-09-24T06:04:36.338Z,22.50
2022-09-24T06:07:23.329Z,22.10
2022-09-24T06:10:10.432Z,23.30
2022-09-24T06:12:57.423Z,22.63
2022-09-24T06:15:45.268Z,23.20
2022-09-24T06:18:35.151Z,25.03
2022-09-24T06:21:22.133Z,23.33
2022-09-24T06:24:09.144Z,23.17
2022-09-24T06:26:56.087Z,23.43
2022-09-24T06:29:43.075Z,22.20
2022-09-24T06:32:30.071Z,23.20
2022-09-24T06:35:17.068Z,22.90
2022-09-24T06:38:05.639Z,21.97
2022-09-24T06:40:52.768Z,22.47
2022-09-24T06:43:39.775Z,22.33
2022-09-24T06:46:26.858Z,23.87
2022-09-24T06:49:14.100Z,24.20
2022-09-24T06:52:01.346Z,24.23
2022-09-24T06:54:48.338Z,23.57
2022-09-24T06:57:35.320Z,25.10
2022-09-24T07:00:22.297Z,24.80
2022-09-24T07:03:15.551Z,26.10
2022-09-24T07:06:04.918Z,26.30
2022-09-24T07:08:51.960Z,24.50
2022-09-24T07:11:39.644Z,26.40
2022-09-24T07:14:26.567Z,26.23
2022-09-24T07:17:13.626Z,23.90
2022-09-24T07:20:01.009Z,25.37
2022-09-24T07:22:48.013Z,24.43
2022-09-24T07:25:36.674Z,24.13
2022-09-24T07:28:23.663Z,23.10
2022-09-24T07:31:10.849Z,24.77
2022-09-24T07:33:57.838Z,24.60
2022-09-24T07:36:44.783Z,24.93
2022-09-24T07:39:33.023Z,23.13
2022-09-24T07:42:20.066Z,23.90
2022-09-24T07:45:07.540Z,22.43
2022-09-24T07:48:02.262Z,22.77
2022-09-24T07:50:49.375Z,23.27
2022-09-24T07:53:36.296Z,24.20
2022-09-24T07:56:24.663Z,23.47
2022-09-24T07:59:11.656Z,23.50
2022-09-24T08:01:58.842Z,23.80
2022-09-24T08:04:46.488Z,24.53
2022-09-24T08:07:33.461Z,25.23
2022-09-24T08:10:20.659Z,24.20
2022-09-24T08:13:07.875Z,24.23
2022-09-24T08:16:01.807Z,24.87
2022-09-24T08:18:48.924Z,23.87
2022-09-24T08:21:39.170Z,23.83
2022-09-24T08:24:26.163Z,23.30
2022-09-24T08:27:17.211Z,23.27
2022-09-24T08:30:05.808Z,20.77
2022-09-24T08:32:52.752Z,21.93
2022-09-24T08:35:40.632Z,22.43
2022-09-24T08:38:28.030Z,21.23
2022-09-24T08:41:43.764Z,22.53
2022-09-24T08:44:55.158Z,23.40
2022-09-24T08:47:58.575Z,22.17
2022-09-24T08:51:02.619Z,23.17
2022-09-24T08:54:10.350Z,22.20
2022-09-24T08:57:00.353Z,22.30
2022-09-24T08:59:51.834Z,21.53
2022-09-24T09:03:20.451Z,22.07
2022-09-24T09:06:07.513Z,21.47
2022-09-24T09:09:16.207Z,22.43
2022-09-24T09:12:06.077Z,22.20
2022-09-24T09:15:21.440Z,20.90
2022-09-24T09:18:20.054Z,21.70
2022-09-24T09:21:17.258Z,20.10
2022-09-24T09:24:14.033Z,25.10
2022-09-24T09:27:01.658Z,22.23
2022-09-24T09:29:54.735Z,19.67
2022-09-24T09:33:02.884Z,20.17
2022-09-24T09:36:03.589Z,22.37
2022-09-24T09:38:50.603Z,23.73
2022-09-24T09:41:47.253Z,22.57
2022-09-24T09:44:41.821Z,20.83
2022-09-24T09:47:33.041Z,19.33
2022-09-24T09:50:41.877Z,18.90
2022-09-24T09:53:33.199Z,18.43
2022-09-24T09:56:25.181Z,17.87
2022-09-24T09:59:12.201Z,18.27
2022-09-24T10:01:59.445Z,17.73
2022-09-24T10:04:46.869Z,17.97
2022-09-24T10:07:45.076Z,18.13
2022-09-24T10:10:32.151Z,17.23
2022-09-24T10:13:19.310Z,18.30
2022-09-24T10:16:10.389Z,17.13
2022-09-24T10:18:57.667Z,17.83
2022-09-24T10:21:44.813Z,17.47
2022-09-24T10:24:32.075Z,17.13
2022-09-24T10:27:29.559Z,15.97
2022-09-24T10:30:35.891Z,15.90
2022-09-24T10:33:23.728Z,16.93
2022-09-24T10:36:30.622Z,15.70
2022-09-24T10:39:18.133Z,16.27
2022-09-24T10:42:07.750Z,16.47
2022-09-24T10:44:56.626Z,16.63
2022-09-24T10:48:08.243Z,14.40
2022-09-24T10:51:17.003Z,15.77
2022-09-24T10:54:19.243Z,14.83
2022-09-24T10:57:45.513Z,15.37
2022-09-24T11:00:38.833Z,14.80
2022-09-24T11:03:31.942Z,14.63
2022-09-24T11:06:24.897Z,15.40
2022-09-24T11:09:36.904Z,15.60
2022-09-24T11:12:46.584Z,14.60
2022-09-24T11:15:54.282Z,15.67
2022-09-24T11:18:56.249Z,15.80
2022-09-24T11:21:58.848Z,16.63
2022-09-24T11:25:10.146Z,16.47
2022-09-24T11:28:12.503Z,17.07
2022-09-24T11:31:17.944Z,16.97
2022-09-24T11:34:37.972Z,16.33
2022-09-24T11:37:53.502Z,16.00
2022-09-24T11:40:53.430Z,16.57
2022-09-24T11:43:49.548Z,15.50
2022-09-24T11:46:47.443Z,15.33
2022-09-24T11:50:00.302Z,15.07
2022-09-24T11:52:59.959Z,15.07
2022-09-24T11:55:53.788Z,16.20
2022-09-24T11:58:47.258Z,15.80
2022-09-24T12:01:38.577Z,16.83
2022-09-24T12:04:54.411Z,16.47
2022-09-24T12:07:53.929Z,15.40
2022-09-24T12:10:50.979Z,16.73
2022-09-24T12:13:42.119Z,15.80
2022-09-24T12:16:33.620Z,16.97
2022-09-24T12:19:33.023Z,16.07
2022-09-24T12:22:21.948Z,17.20
2022-09-24T12:25:12.985Z,15.93
2022-09-24T12:28:01.640Z,16.90
2022-09-24T12:31:15.929Z,16.33
2022-09-24T12:34:15.879Z,15.77
2022-09-24T12:37:09.588Z,15.77
2022-09-24T12:40:02.664Z,16.90
2022-09-24T12:42:55.084Z,16.73
2022-09-24T12:45:42.655Z,18.13
2022-09-24T12:48:32.086Z,17.20
2022-09-24T12:51:24.103Z,17.10
2022-09-24T12:54:30.217Z,18.67
2022-09-24T12:57:26.886Z,17.63
2022-09-24T13:00:32.703Z,18.60
2022-09-24T13:03:42.147Z,18.33
2022-09-24T13:06:46.775Z,19.00
2022-09-24T13:09:41.232Z,18.93
2022-09-24T13:12:33.368Z,18.97
2022-09-24T13:15:40.887Z,19.10
2022-09-24T13:18:29.268Z,20.80
2022-09-24T13:21:22.899Z,19.37
2022-09-24T13:24:24.934Z,19.47
2022-09-24T13:27:22.736Z,19.57
2022-09-24T13:30:09.708Z,19.97
2022-09-24T13:33:01.951Z,20.23
2022-09-24T13:35:58.487Z,18.77
2022-09-24T13:38:57.303Z,20.43
2022-09-24T13:42:01.733Z,21.33
2022-09-24T13:45:06.275Z,20.90
2022-09-24T13:48:01.239Z,21.73
2022-09-24T13:50:53.043Z,22.60
2022-09-24T13:53:47.696Z,23.00
2022-09-24T13:56:34.978Z,22.73
2022-09-24T13:59:22.031Z,21.10
2022-09-24T14:02:39.287Z,21.37
2022-09-24T14:05:29.187Z,20.40
2022-09-24T14:08:18.739Z,20.53
2022-09-24T14:11:13.744Z,22.60
2022-09-24T14:14:21.465Z,21.33
2022-09-24T14:17:22.311Z,20.37
2022-09-24T14:20:20.545Z,21.17
2022-09-24T14:23:21.178Z,20.53
2022-09-24T14:26:18.696Z,21.53
2022-09-24T14:29:18.346Z,22.33
2022-09-24T14:32:08.496Z,22.87
2022-09-24T14:35:00.363Z,25.80
2022-09-24T14:38:16.664Z,25.30
2022-09-24T14:41:23.843Z,26.10
2022-09-24T14:44:25.150Z,28.63
2022-09-24T14:47:27.884Z,29.80
2022-09-24T14:50:35.507Z,29.07
2022-09-24T14:53:22.570Z,28.53
2022-09-24T14:56:20.545Z,31.47
2022-09-24T14:59:20.549Z,30.87
2022-09-24T15:02:24.333Z,31.07
2022-09-24T15:05:15.022Z,28.40
2022-09-24T15:08:41.962Z,29.53
2022-09-24T15:11:35.044Z,30.40
2022-09-24T15:14:27.554Z,29.00
2022-09-24T15:17:29.021Z,30.00
2022-09-24T15:20:16.206Z,32.90
2022-09-24T15:23:03.489Z,32.03
2022-09-24T15:25:50.480Z,30.90
2022-09-24T15:28:37.580Z,30.37
2022-09-24T15:31:24.910Z,33.07
2022-09-24T15:34:14.452Z,32.93
2022-09-24T15:37:05.407Z,35.23
2022-09-24T15:39:56.316Z,34.20
2022-09-24T15:42:43.323Z,35.97
2022-09-24T15:45:31.079Z,33.37
2022-09-24T15:48:18.840Z,34.40
2022-09-24T15:51:10.980Z,37.67
2022-09-24T15:53:59.795Z,34.90
2022-09-24T15:56:52.298Z,32.43
2022-09-24T15:59:40.478Z,39.60
2022-09-24T16:02:32.081Z,38.17
2022-09-24T16:05:20.031Z,39.97
2022-09-24T16:08:07.001Z,40.20
2022-09-24T16:10:54.159Z,41.13
2022-09-24T16:13:41.101Z,39.27
2022-09-24T16:16:28.222Z,41.57
2022-09-24T16:19:15.228Z,39.77
2022-09-24T16:22:02.277Z,40.77
2022-09-24T16:24:49.251Z,43.50
2022-09-24T16:27:36.959Z,41.87
2022-09-24T16:30:24.395Z,42.33
2022-09-24T16:33:11.443Z,42.63
2022-09-24T16:36:05.519Z,43.60
2022-09-24T16:38:52.513Z,41.53
2022-09-24T16:41:39.797Z,44.30
2022-09-24T16:44:26.778Z,41.27
2022-09-24T16:47:18.959Z,42.37
2022-09-24T16:50:06.633Z,42.33
2022-09-24T16:52:55.463Z,42.67
2022-09-24T16:55:42.389Z,41.57
2022-09-24T16:58:30.623Z,40.23
2022-09-24T17:01:20.212Z,42.00
2022-09-24T17:04:07.189Z,41.00
2022-09-24T17:06:55.472Z,43.27
2022-09-24T17:10:00.983Z,40.20
2022-09-24T17:12:50.144Z,40.33
2022-09-24T17:15:37.232Z,41.37
2022-09-24T17:18:26.438Z,41.13
2022-09-24T17:21:17.923Z,41.20
2022-09-24T17:24:05.154Z,43.27
2022-09-24T17:26:52.139Z,41.13
2022-09-24T17:29:39.079Z,41.03
2022-09-24T17:32:26.199Z,39.50
2022-09-24T17:35:14.860Z,41.33
2022-09-24T17:38:02.402Z,40.27
2022-09-24T17:41:03.646Z,38.70
2022-09-24T17:43:51.603Z,37.27
2022-09-24T17:46:38.945Z,34.37
2022-09-24T17:49:26.601Z,33.10
2022-09-24T17:52:13.644Z,30.40
2022-09-24T17:55:01.224Z,32.93
2022-09-24T17:57:48.220Z,29.20
2022-09-24T18:00:35.466Z,26.93
2022-09-24T18:03:22.378Z,28.27
2022-09-24T18:06:14.876Z,28.83
2022-09-24T18:09:02.095Z,27.17
2022-09-24T18:11:51.505Z,28.07
2022-09-24T18:14:39.981Z,29.00
2022-09-24T18:17:27.074Z,25.63
2022-09-24T18:20:14.155Z,23.37
2022-09-24T18:23:01.183Z,20.70
2022-09-24T18:25:48.284Z,18.07
2022-09-24T18:28:35.383Z,19.20
2022-09-24T18:31:25.212Z,16.23
2022-09-24T18:34:14.849Z,16.83
2022-09-24T18:37:02.126Z,15.03
2022-09-24T18:39:49.596Z,15.00
2022-09-24T18:42:36.541Z,14.10
2022-09-24T18:45:25.070Z,13.87
2022-09-24T18:48:12.021Z,12.90
2022-09-24T18:50:59.772Z,12.23
2022-09-24T18:53:54.942Z,11.33
2022-09-24T18:56:43.620Z,11.90
2022-09-24T18:59:34.687Z,12.50
2022-09-24T19:02:25.353Z,12.30
2022-09-24T19:05:12.349Z,11.47
2022-09-24T19:07:59.462Z,11.77
2022-09-24T19:10:52.637Z,11.03
2022-09-24T19:13:42.138Z,11.80
2022-09-24T19:16:30.193Z,11.17
2022-09-24T19:19:17.123Z,11.00
2022-09-24T19:22:04.050Z,11.43
2022-09-24T19:24:51.007Z,11.43
2022-09-24T19:27:40.399Z,12.37
2022-09-24T19:30:27.776Z,11.63
2022-09-24T19:33:16.307Z,11.67
2022-09-24T19:36:04.685Z,13.03
2022-09-24T19:38:52.006Z,12.73
2022-09-24T19:41:39.528Z,12.43
2022-09-24T19:44:26.480Z,13.37
2022-09-24T19:47:13.383Z,12.50
2022-09-24T19:50:00.397Z,12.27
2022-09-24T19:52:48.741Z,13.90
2022-09-24T19:55:35.729Z,14.03
2022-09-24T19:58:22.788Z,14.57
2022-09-24T20:01:14.931Z,13.80
2022-09-24T20:04:06.434Z,15.07
2022-09-24T20:06:54.291Z,15.33
2022-09-24T20:09:41.378Z,14.63
2022-09-24T20:12:29.714Z,14.83
2022-09-24T20:15:16.627Z,14.90
2022-09-24T20:18:04.081Z,16.30
2022-09-24T20:20:53.614Z,16.73
2022-09-24T20:23:41.259Z,16.77
2022-09-24T20:26:46.694Z,16.83
2022-09-24T20:29:34.317Z,15.93
2022-09-24T20:32:21.279Z,16.80
2022-09-24T20:35:08.319Z,17.13
2022-09-24T20:37:55.347Z,18.87
2022-09-24T20:40:42.744Z,18.93
2022-09-24T20:43:32.359Z,17.63
2022-09-24T20:46:24.112Z,19.00
2022-09-24T20:49:22.270Z,19.13
2022-09-24T20:52:09.200Z,19.77
2022-09-24T20:54:56.418Z,20.30
2022-09-24T20:57:43.909Z,21.20
2022-09-24T21:00:35.753Z,21.67
2022-09-24T21:03:42.824Z,22.17
2022-09-24T21:06:30.411Z,21.80
2022-09-24T21:09:18.125Z,23.97
2022-09-24T21:12:05.321Z,22.50
2022-09-24T21:14:52.810Z,23.00
2022-09-24T21:17:39.814Z,24.93
2022-09-24T21:20:27.086Z,25.80
2022-09-24T21:23:14.085Z,25.50
2022-09-24T21:26:22.464Z,25.97
2022-09-24T21:29:21.730Z,26.00
2022-09-24T21:32:08.669Z,27.80
2022-09-24T21:34:56.633Z,26.67
2022-09-24T21:37:43.594Z,26.93
2022-09-24T21:40:30.764Z,23.13
2022-09-24T21:43:17.810Z,28.20
2022-09-24T21:46:06.713Z,27.80
2022-09-24T21:48:55.897Z,29.73
2022-09-24T21:51:43.452Z,28.70
2022-09-24T21:54:33.355Z,29.17
2022-09-24T21:57:20.283Z,25.73
2022-09-24T22:00:10.627Z,25.87
2022-09-24T22:02:57.605Z,24.43
2022-09-24T22:05:44.685Z,21.43
2022-09-24T22:08:32.097Z,20.90
2022-09-24T22:11:19.432Z,20.53
2022-09-24T22:14:07.215Z,21.53
2022-09-24T22:16:54.840Z,22.17
2022-09-24T22:19:41.830Z,26.10
2022-09-24T22:22:28.827Z,25.70
2022-09-24T22:25:15.873Z,23.10
2022-09-24T22:28:02.890Z,23.13
2022-09-24T22:30:50.251Z,21.87
2022-09-24T22:33:56.505Z,19.87
2022-09-24T22:36:43.495Z,20.60
2022-09-24T22:39:30.474Z,20.77
2022-09-24T22:42:17.381Z,19.07
2022-09-24T22:45:05.495Z,20.17
2022-09-24T22:47:53.450Z,19.77
2022-09-24T22:50:40.546Z,21.17
2022-09-24T22:53:27.943Z,20.43
2022-09-24T22:56:18.279Z,21.93
2022-09-24T22:59:06.034Z,21.37
2022-09-24T23:01:53.190Z,22.57
2022-09-24T23:04:40.519Z,22.23
2022-09-24T23:07:27.698Z,21.60
2022-09-24T23:10:14.681Z,20.97
2022-09-24T23:13:01.638Z,20.97
2022-09-24T23:15:48.502Z,21.27
2022-09-24T23:18:35.644Z,22.23
2022-09-24T23:21:24.422Z,20.70
2022-09-24T23:24:22.063Z,21.37
2022-09-24T23:27:09.210Z,21.57
2022-09-24T23:29:57.014Z,19.97
2022-09-24T23:32:43.971Z,21.20
2022-09-24T23:35:30.926Z,21.43
2022-09-24T23:38:17.829Z,22.53
2022-09-24T23:41:05.414Z,22.17
2022-09-24T23:43:52.830Z,20.70
2022-09-24T23:46:39.792Z,20.23
2022-09-24T23:49:27.249Z,22.13
2022-09-24T23:52:14.391Z,20.83
2022-09-24T23:55:01.299Z,20.90
2022-09-24T23:57:48.254Z,18.83
